FW6320 Weather Reports


Display with metric or nautical units.
time (UTC)temp
F
wind
direction
speed
MPH
gust
MPH
rain 1hr
in
rain 24hr
in
rain mn
in
humidity
%
barometer
mb
20201026091018 48 313 3.0 12.0 0.02 0.10 0.07 95 1017.5
20201026090521 48 320 6.0 16.0 0.02 0.10 0.07 95 1017.3
20201026090029 48 305 7.0 16.0 0.02 0.10 0.07 95 1017.3
20201026085524 49 317 7.0 14.0 0.02 0.10 0.07 95 1017.4
20201026085031 49 321 7.0 14.0 0.04 0.10 0.07 95 1017.3
20201026084527 49 301 8.0 14.0 0.04 0.09 0.06 95 1017.2
20201026084026 49 338 7.0 13.0 0.04 0.09 0.06 95 1017.4
20201026083522 49 298 5.0 12.0 0.04 0.09 0.06 95 1017.2
20201026083029 49 306 6.0 12.0 0.04 0.09 0.06 95 1017.3
20201026082519 49 267 5.0 12.0 0.05 0.09 0.06 95 1017.5
20201026082023 50 346 5.0 9.0 0.05 0.09 0.06 95 1017.2
20201026081556 50 298 4.0 9.0 0.04 0.08 0.05 95 1017.3
20201026081048 50 311 4.0 13.0 0.04 0.08 0.05 95 1017.2
20201026080525 50 315 5.0 13.0 0.04 0.08 0.05 95 1017.3
20201026080037 50 298 7.0 16.0 0.04 0.08 0.05 95 1017.3
20201026075535 50 265 7.0 16.0 0.05 0.08 0.05 95 1017.0
20201026075024 51 322 6.0 15.0 0.03 0.06 0.03 95 1016.8
20201026074536 51 320 8.0 15.0 0.02 0.05 0.02 95 1017.2
20201026074022 51 328 8.0 15.0 0.02 0.05 0.02 95 1017.0
20201026073536 51 328 7.0 15.0 0.02 0.05 0.02 95 1016.6
20201026073046 51 329 8.0 14.0 0.01 0.04 0.01 95 1016.6
20201026072536 51 9 8.0 15.0 0.01 0.04 0.01 95 1016.7
20201026072022 51 321 8.0 15.0 0.01 0.04 0.01 95 1016.8
20201026071534 51 314 6.0 15.0 0.01 0.04 0.01 95 1016.6
20201026071031 51 342 8.0 15.0 0.01 0.04 0.01 96 1016.3
20201026070524 51 345 7.0 14.0 0.01 0.04 0.01 95 1016.0
20201026070051 51 336 8.0 17.0 0.01 0.04 0.01 95 1016.2
20201026065541 51 346 7.0 17.0 0.00 0.03 0.00 95 1016.2
20201026065045 51 323 8.0 16.0 0.00 0.03 0.00 95 1016.4
20201026064547 51 321 9.0 15.0 0.00 0.03 0.00 95 1016.5
20201026064029 51 310 6.0 15.0 0.00 0.03 0.00 95 1016.5
20201026063520 51 306 9.0 15.0 0.00 0.03 0.00 95 1016.2
20201026063046 51 355 8.0 13.0 0.00 0.03 0.00 95 1016.0
20201026062526 51 326 8.0 14.0 0.00 0.03 0.00 95 1016.0
20201026062041 51 345 9.0 15.0 0.00 0.03 0.00 95 1016.1
20201026061538 51 347 9.0 15.0 0.00 0.03 0.00 95 1016.2
20201026061027 52 337 7.0 16.0 0.00 0.03 0.00 95 1016.2
20201026060523 52 342 9.0 16.0 0.00 0.03 0.00 95 1016.0
20201026060031 52 336 7.0 16.0 0.00 0.03 0.00 95 1016.0
20201026055520 52 321 9.0 16.0 0.00 0.03 0.00 95 1016.1
20201026055024 52 355 8.0 15.0 0.00 0.03 0.00 95 1016.3
20201026054540 52 304 7.0 15.0 0.00 0.03 0.00 95 1016.5
20201026054019 52 329 8.0 15.0 0.00 0.03 0.00 95 1016.5
20201026053519 52 343 8.0 15.0 0.00 0.03 0.00 95 1016.4
20201026053040 52 340 8.0 15.0 0.00 0.03 0.00 95 1016.4
20201026052523 52 325 6.0 13.0 0.00 0.03 0.00 95 1016.6
20201026052026 52 325 6.0 13.0 0.00 0.03 0.00 95 1016.7
20201026051534 52 355 7.0 13.0 0.00 0.03 0.00 95 1016.5
20201026051038 53 329 6.0 15.0 0.00 0.03 0.00 94 1016.6
20201026050531 53 350 10.0 15.0 0.00 0.03 0.00 94 1016.6
20201026050055 53 331 6.0 13.0 0.00 0.03 0.00 95 1016.7
20201026045522 53 347 5.0 10.0 0.00 0.03 0.03 95 1016.8
20201026045023 53 333 5.0 10.0 0.00 0.03 0.03 95 1016.7
20201026044529 53 322 5.0 11.0 0.00 0.03 0.03 95 1016.7
20201026044034 53 360 6.0 15.0 0.00 0.03 0.03 95 1016.6
20201026043520 53 352 8.0 15.0 0.00 0.03 0.03 95 1016.5
20201026043114 53 327 6.0 12.0 0.00 0.03 0.03 95 1016.7
20201026042519 53 315 5.0 12.0 0.00 0.03 0.03 95 1016.6
20201026042034 53 337 6.0 11.0 0.00 0.03 0.03 95 1016.6
20201026041538 53 346 6.0 13.0 0.00 0.03 0.03 95 1016.6
20201026041023 53 344 7.0 13.0 0.00 0.03 0.03 95 1016.4
20201026040527 53 355 6.0 12.0 0.00 0.03 0.03 95 1016.0
20201026040039 53 345 7.0 14.0 0.00 0.03 0.03 95 1016.0
20201026035530 53 355 7.0 14.0 0.00 0.03 0.03 95 1015.9
20201026035026 53 360 7.0 15.0 0.00 0.03 0.03 95 1015.9
20201026034644 53 338 9.0 17.0 0.00 0.03 0.03 95 1015.8
20201026034032 53 355 9.0 17.0 0.00 0.03 0.03 95 1015.5
20201026033523 53 341 8.0 15.0 0.00 0.03 0.03 95 1015.7
20201026033051 53 346 7.0 15.0 0.00 0.03 0.03 95 1015.7
20201026032520 53 329 8.0 15.0 0.00 0.03 0.03 95 1015.8
20201026032038 53 351 7.0 15.0 0.00 0.03 0.03 95 1016.1
20201026031549 53 322 7.0 13.0 0.00 0.03 0.03 95 1016.1
20201026031031 53 346 7.0 13.0 0.00 0.03 0.03 95 1016.2
20201026030518 53 355 7.0 13.0 0.00 0.03 0.03 95 1016.1
20201026030056 53 355 7.0 13.0 0.00 0.03 0.03 95 1016.2
20201026025523 53 343 7.0 13.0 0.00 0.03 0.03 95 1016.2
20201026025019 53 323 7.0 13.0 0.00 0.03 0.03 95 1016.2
20201026024526 53 325 7.0 13.0 0.00 0.03 0.03 95 1016.1
20201026024028 53 360 6.0 13.0 0.00 0.03 0.03 95 1016.1
20201026023524 53 347 6.0 14.0 0.00 0.03 0.03 95 1016.1
20201026023125 53 327 7.0 14.0 0.00 0.03 0.03 95 1016.0
20201026022531 53 338 9.0 14.0 0.00 0.03 0.03 95 1015.9
20201026022036 53 335 7.0 15.0 0.00 0.03 0.03 95 1015.8
20201026021533 53 350 8.0 15.0 0.01 0.03 0.03 95 1015.8
20201026021041 53 328 9.0 15.0 0.01 0.03 0.03 95 1015.9
20201026020521 53 321 7.0 15.0 0.01 0.03 0.03 95 1015.9
20201026020122 53 332 8.0 18.0 0.01 0.03 0.03 95 1015.9
20201026015521 53 338 8.0 18.0 0.01 0.03 0.03 95 1015.9
20201026015026 53 344 8.0 14.0 0.01 0.03 0.03 95 1016.0
20201026014653 53 334 8.0 13.0 0.01 0.03 0.03 95 1016.0
20201026014021 53 329 7.0 16.0 0.01 0.03 0.03 95 1016.0
20201026013518 53 342 8.0 16.0 0.01 0.03 0.03 95 1016.0
20201026013032 53 335 7.0 14.0 0.01 0.03 0.03 95 1016.2
20201026012525 53 350 8.0 15.0 0.01 0.03 0.03 95 1016.1
20201026012018 54 279 8.0 16.0 0.01 0.03 0.03 95 1016.0
20201026011550 54 296 9.0 16.0 0.00 0.02 0.02 95 1016.0
20201026011018 54 294 7.0 15.0 0.00 0.02 0.02 95 1015.9
20201026010519 54 310 7.0 14.0 0.01 0.02 0.02 95 1015.7
20201026010054 54 325 6.0 13.0 0.01 0.02 0.02 95 1015.8
20201026005526 54 311 6.0 14.0 0.01 0.02 0.02 95 1015.7
20201026005019 54 341 8.0 14.0 0.01 0.02 0.02 95 1015.6
20201026004626 54 300 8.0 14.0 0.01 0.02 0.02 95 1015.6
20201026004048 54 293 7.0 12.0 0.01 0.02 0.02 95 1015.3
20201026003542 54 321 7.0 12.0 0.01 0.02 0.02 95 1015.3
20201026003036 54 306 7.0 12.0 0.01 0.02 0.02 95 1015.2
20201026002518 55 335 6.0 15.0 0.01 0.02 0.02 95 1015.1
20201026002024 55 299 8.0 15.0 0.01 0.02 0.02 95 1015.1
20201026001550 55 317 6.0 13.0 0.01 0.02 0.02 95 1014.9
20201026001024 55 328 8.0 13.0 0.01 0.02 0.02 95 1014.6
20201026000522 55 305 6.0 13.0 0.00 0.01 0.01 95 1014.4
20201026000039 55 323 7.0 13.0 0.00 0.01 0.01 95 1014.3
20201025235524 55 330 6.0 12.0 0.00 0.01 0.01 95 1014.5
20201025235040 55 349 4.0 12.0 0.00 0.01 0.01 95 1014.3
20201025234528 55 317 5.0 10.0 0.00 0.01 0.01 95 1014.3
20201025234043 55 336 5.0 10.0 0.00 0.01 0.01 95 1014.3
20201025233519 55 345 6.0 10.0 0.00 0.01 0.01 95 1014.2
20201025233109 56 331 6.0 10.0 0.01 0.01 0.01 95 1014.0
20201025232522 56 346 6.0 10.0 0.01 0.01 0.01 95 1013.9
20201025232024 56 344 6.0 11.0 0.01 0.01 0.01 95 1014.0
20201025231534 56 337 6.0 11.0 0.01 0.01 0.01 95 1013.8
20201025231032 56 324 6.0 11.0 0.01 0.01 0.01 95 1013.7
20201025230544 56 346 6.0 11.0 0.01 0.01 0.01 95 1013.6
20201025230056 56 355 6.0 14.0 0.01 0.01 0.01 95 1013.6
20201025225527 56 330 8.0 14.0 0.01 0.01 0.01 95 1013.5
20201025225029 56 335 6.0 13.0 0.01 0.01 0.01 95 1013.3
20201025224539 56 15 7.0 12.0 0.01 0.01 0.01 95 1013.2
20201025224018 56 327 7.0 11.0 0.01 0.01 0.01 95 1013.2
20201025223530 56 326 7.0 12.0 0.01 0.01 0.01 95 1013.2
20201025223033 56 330 7.0 12.0 0.00 0.00 0.00 95 1013.3
20201025222526 56 348 7.0 12.0 0.00 0.00 0.00 95 1013.2
20201025222024 56 332 7.0 12.0 0.00 0.00 0.00 95 1013.0
20201025221604 56 351 6.0 11.0 0.00 0.00 0.00 95 1013.0
20201025221024 56 347 6.0 11.0 0.00 0.00 0.00 95 1012.9
20201025220524 56 328 5.0 10.0 0.00 0.00 0.00 95 1012.9
20201025220146 56 341 6.0 11.0 0.00 0.00 0.00 95 1013.0
20201025215521 56 347 6.0 12.0 0.00 0.00 0.00 95 1013.0
20201025215018 56 336 6.0 12.0 0.00 0.00 0.00 95 1012.8
20201025214532 56 342 5.0 12.0 0.00 0.00 0.00 95 1012.9
20201025214034 57 334 6.0 12.0 0.00 0.00 0.00 95 1012.8
20201025213522 57 317 6.0 12.0 0.00 0.00 0.00 95 1012.8
20201025213042 57 352 6.0 12.0 0.00 0.00 0.00 95 1012.8
20201025212526 57 342 5.0 9.0 0.00 0.00 0.00 95 1012.8
20201025212020 57 29 4.0 10.0 0.00 0.00 0.00 95 1012.8
20201025211533 57 5 5.0 10.0 0.00 0.00 0.00 95 1012.8
20201025211018 57 340 5.0 9.0 0.00 0.00 0.00 95 1012.8
20201025210518 57 335 4.0 11.0 0.00 0.00 0.00 95 1012.8
20201025210039 57 350 4.0 11.0 0.00 0.00 0.00 95 1012.8
20201025205525 57 338 5.0 11.0 0.00 0.00 0.00 95 1012.7
20201025205027 57 338 3.0 9.0 0.00 0.00 0.00 94 1012.7
20201025204622 57 5 5.0 9.0 0.00 0.00 0.00 94 1012.8
20201025204033 57 337 4.0 10.0 0.00 0.00 0.00 94 1012.7
20201025203531 57 310 4.0 10.0 0.00 0.00 0.00 94 1012.5
20201025203030 57 10 4.0 9.0 0.00 0.00 0.00 94 1012.6
20201025202527 58 331 5.0 9.0 0.00 0.00 0.00 93 1012.5
20201025202020 58 350 5.0 9.0 0.00 0.00 0.00 93 1012.3
20201025201551 58 340 4.0 9.0 0.00 0.00 0.00 93 1012.4
20201025201024 58 347 4.0 9.0 0.00 0.00 0.00 93 1012.4
20201025200526 59 360 3.0 8.0 0.00 0.00 0.00 92 1012.4
20201025200057 59 355 3.0 9.0 0.00 0.00 0.00 93 1012.7
20201025195526 59 344 4.0 9.0 0.00 0.00 0.00 92 1012.7
20201025195019 59 351 3.0 7.0 0.00 0.00 0.00 93 1012.7
20201025194534 58 35 3.0 8.0 0.00 0.00 0.00 92 1012.9
20201025194041 58 36 3.0 8.0 0.00 0.00 0.00 92 1012.9
20201025193519 58 30 3.0 8.0 0.00 0.00 0.00 92 1013.1
20201025193032 58 13 3.0 8.0 0.00 0.00 0.00 92 1013.1
20201025192535 58 29 3.0 9.0 0.00 0.00 0.00 91 1013.3
20201025192028 58 39 3.0 9.0 0.00 0.00 0.00 91 1013.2
20201025191542 58 26 3.0 9.0 0.00 0.00 0.00 91 1013.3
20201025191019 58 32 3.0 9.0 0.00 0.00 0.00 91 1013.3
20201025190537 58 38 3.0 8.0 0.00 0.00 0.00 90 1013.4
20201025190047 59 38 4.0 8.0 0.00 0.00 0.00 89 1013.5
20201025185530 59 55 3.0 9.0 0.00 0.00 0.00 89 1013.6
20201025185021 59 25 4.0 10.0 0.00 0.00 0.00 89 1013.6
20201025184545 59 43 5.0 11.0 0.00 0.00 0.00 88 1013.6
20201025184024 59 47 6.0 11.0 0.00 0.00 0.00 88 1013.6
20201025183521 59 9 3.0 11.0 0.00 0.00 0.00 88 1013.7
20201025183032 59 51 6.0 11.0 0.00 0.00 0.00 87 1013.8
20201025182526 59 36 5.0 11.0 0.00 0.00 0.00 87 1013.8
20201025182037 59 33 4.0 9.0 0.00 0.00 0.00 87 1013.7
20201025181528 59 51 4.0 12.0 0.00 0.00 0.00 87 1013.8
20201025181019 59 30 6.0 12.0 0.00 0.00 0.00 87 1014.0
20201025180527 59 46 5.0 11.0 0.00 0.00 0.00 87 1013.9
20201025180116 59 62 4.0 12.0 0.00 0.00 0.00 87 1014.1
20201025175521 59 30 6.0 12.0 0.00 0.00 0.00 87 1014.1
20201025175033 59 38 6.0 12.0 0.00 0.00 0.00 87 1014.2
20201025174529 59 35 6.0 12.0 0.00 0.00 0.00 87 1014.2
20201025174020 59 28 6.0 10.0 0.00 0.00 0.00 87 1014.3
20201025173525 59 36 6.0 12.0 0.00 0.00 0.00 87 1014.3
20201025173035 58 56 6.0 12.0 0.00 0.00 0.00 87 1014.3
20201025172526 58 55 7.0 13.0 0.00 0.00 0.00 87 1014.3
20201025172040 58 48 6.0 13.0 0.00 0.00 0.00 87 1014.4
20201025171553 58 28 5.0 12.0 0.00 0.00 0.00 87 1014.4
20201025171020 58 34 5.0 11.0 0.00 0.00 0.00 88 1014.5
20201025170524 58 55 6.0 10.0 0.00 0.00 0.00 88 1014.7
20201025170159 58 45 5.0 12.0 0.00 0.00 0.00 88 1014.8
20201025165540 58 61 6.0 13.0 0.00 0.00 0.00 88 1014.8
20201025165036 58 31 7.0 13.0 0.00 0.00 0.00 88 1015.0
20201025164520 58 48 6.0 12.0 0.00 0.00 0.00 88 1015.0
20201025164034 58 76 7.0 12.0 0.00 0.00 0.00 88 1015.1
20201025163521 58 54 6.0 12.0 0.00 0.00 0.00 88 1015.3
20201025163059 58 40 5.0 10.0 0.00 0.00 0.00 88 1015.3
20201025162519 58 24 5.0 13.0 0.00 0.00 0.00 88 1015.4
20201025162019 58 62 4.0 13.0 0.00 0.00 0.00 89 1015.4
20201025161521 57 22 5.0 12.0 0.00 0.00 0.00 89 1015.4
20201025161022 57 39 7.0 12.0 0.00 0.00 0.00 89 1015.4
20201025160535 57 41 6.0 11.0 0.00 0.00 0.00 89 1015.4
20201025160049 57 75 6.0 10.0 0.00 0.00 0.00 89 1015.5
20201025155519 57 63 5.0 11.0 0.00 0.00 0.00 90 1015.5
20201025155021 57 55 5.0 12.0 0.00 0.00 0.00 90 1015.5
20201025154607 57 44 6.0 12.0 0.00 0.00 0.00 90 1015.6
20201025154019 56 15 6.0 12.0 0.00 0.00 0.00 91 1015.6
20201025153519 56 39 5.0 12.0 0.00 0.00 0.00 91 1015.4
20201025153034 56 18 5.0 12.0 0.00 0.00 0.00 91 1015.5
20201025152520 56 46 7.0 12.0 0.00 0.00 0.00 91 1015.3
20201025152019 56 61 5.0 12.0 0.00 0.00 0.00 91 1015.4
20201025151706 55 36 6.0 12.0 0.00 0.00 0.00 92 1015.3
20201025151020 55 48 4.0 10.0 0.00 0.00 0.00 92 1015.3
20201025150523 55 43 5.0 10.0 0.00 0.00 0.00 92 1015.3
20201025150034 55 61 5.0 10.0 0.00 0.00 0.00 93 1015.2
20201025145528 55 45 4.0 11.0 0.00 0.00 0.00 93 1015.2
20201025145022 55 47 6.0 11.0 0.00 0.00 0.00 93 1015.4
20201025144612 54 49 4.0 13.0 0.00 0.00 0.00 93 1015.3
20201025144041 54 61 7.0 13.0 0.00 0.00 0.00 93 1015.1
20201025143529 54 74 7.0 13.0 0.00 0.00 0.00 93 1014.9
20201025143058 54 55 6.0 11.0 0.00 0.00 0.00 93 1015.0
20201025142535 54 58 5.0 10.0 0.00 0.00 0.00 93 1015.0
20201025142023 54 49 3.0 10.0 0.00 0.00 0.00 93 1015.1
20201025141541 53 55 5.0 10.0 0.00 0.00 0.00 93 1015.1
20201025141026 53 41 5.0 10.0 0.00 0.00 0.00 94 1014.9
20201025140524 53 75 4.0 10.0 0.00 0.00 0.00 94 1015.0
20201025140057 53 63 4.0 10.0 0.00 0.00 0.00 93 1015.1
20201025135533 53 24 3.0 8.0 0.00 0.00 0.00 93 1015.0
20201025135030 53 38 4.0 9.0 0.00 0.00 0.00 93 1014.9
20201025134532 53 62 4.0 9.0 0.00 0.00 0.00 93 1014.7
20201025134035 53 65 4.0 9.0 0.00 0.00 0.00 94 1014.6
20201025133520 53 44 4.0 12.0 0.00 0.00 0.00 94 1014.5
20201025133052 53 39 4.0 12.0 0.00 0.00 0.00 94 1014.5
20201025132553 53 54 5.0 11.0 0.00 0.00 0.00 94 1014.4
20201025132028 52 57 3.0 9.0 0.00 0.00 0.00 94 1014.3
20201025131548 52 58 4.0 9.0 0.00 0.00 0.00 94 1014.3
20201025131025 52 53 4.0 8.0 0.00 0.00 0.00 94 1014.3
20201025130527 52 47 3.0 7.0 0.00 0.00 0.00 94 1014.3
20201025130028 52 32 4.0 7.0 0.00 0.00 0.00 95 1014.3
20201025125535 52 55 3.0 7.0 0.00 0.00 0.00 95 1014.3
20201025125038 52 15 4.0 7.0 0.00 0.00 0.00 95 1014.2
20201025124630 51 47 3.0 8.0 0.00 0.00 0.00 95 1014.1
20201025124036 51 36 4.0 8.0 0.00 0.00 0.00 95 1014.1
20201025123526 51 47 3.0 8.0 0.00 0.00 0.00 95 1014.1
20201025123043 51 34 3.0 8.0 0.00 0.00 0.00 95 1014.1
20201025122519 51 46 3.0 7.0 0.00 0.00 0.00 95 1014.1
20201025122030 50 46 3.0 7.0 0.00 0.00 0.00 95 1014.1
20201025121542 50 33 2.0 5.0 0.00 0.00 0.00 95 1014.1
20201025121026 50 55 3.0 5.0 0.00 0.00 0.00 95 1014.2
20201025120526 50 36 2.0 5.0 0.00 0.00 0.00 95 1014.0
20201025120044 50 30 2.0 5.0 0.00 0.00 0.00 95 1014.2
20201025115534 50 33 2.0 5.0 0.00 0.00 0.00 95 1014.1
20201025115029 50 25 2.0 5.0 0.00 0.00 0.00 95 1014.0
20201025114556 50 19 3.0 5.0 0.00 0.00 0.00 95 1014.1
20201025114023 50 24 2.0 5.0 0.00 0.00 0.00 95 1014.1
20201025113539 50 360 2.0 6.0 0.00 0.00 0.00 95 1014.1
20201025113029 50 355 3.0 7.0 0.00 0.00 0.00 95 1014.1
20201025112526 50 33 3.0 7.0 0.00 0.00 0.00 95 1014.0
20201025112022 50 22 2.0 5.0 0.00 0.00 0.00 95 1013.9
20201025111541 50 25 2.0 6.0 0.00 0.00 0.00 94 1013.9
20201025111036 50 33 2.0 7.0 0.00 0.00 0.00 94 1013.9
20201025110519 50 22 3.0 8.0 0.00 0.00 0.00 94 1013.9
20201025110052 49 44 3.0 8.0 0.00 0.00 0.00 94 1013.7
20201025105520 49 13 2.0 5.0 0.00 0.00 0.00 94 1013.7
20201025105033 49 40 3.0 5.0 0.00 0.00 0.00 94 1013.9
20201025104527 49 30 2.0 5.0 0.00 0.00 0.00 94 1013.8
20201025104019 49 24 1.0 5.0 0.00 0.00 0.00 94 1013.7
20201025103525 50 36 2.0 5.0 0.00 0.00 0.00 94 1013.6
20201025103034 50 23 2.0 6.0 0.00 0.00 0.00 94 1013.6
20201025102522 50 22 3.0 8.0 0.00 0.00 0.00 94 1013.5
20201025102025 50 25 3.0 8.0 0.00 0.00 0.00 94 1013.5
20201025101533 49 19 3.0 6.0 0.00 0.00 0.00 94 1013.4
20201025101022 49 22 3.0 6.0 0.00 0.00 0.00 94 1013.5
20201025100528 49 34 2.0 5.0 0.00 0.00 0.00 93 1013.5
20201025100026 49 355 2.0 6.0 0.00 0.00 0.00 93 1013.4
20201025095526 49 24 2.0 6.0 0.00 0.00 0.00 93 1013.4
20201025095029 49 32 3.0 5.0 0.00 0.00 0.00 93 1013.3
20201025094527 49 21 3.0 5.0 0.00 0.00 0.00 93 1013.4
20201025094019 50 40 2.0 5.0 0.00 0.00 0.00 93 1013.4
20201025093537 50 5 3.0 6.0 0.00 0.00 0.00 93 1013.5
20201025093034 50 16 3.0 6.0 0.00 0.00 0.00 93 1013.4
20201025092521 49 20 2.0 5.0 0.00 0.00 0.00 93 1013.4
20201025092020 49 360 3.0 6.0 0.00 0.00 0.00 92 1013.6
20201025091547 50 36 3.0 6.0 0.00 0.00 0.00 93 1013.6